Time;durP1;ratioP1;P1;durP2;ratioP2;P2;SDS_P1;SDS_P2;PMS_P1;PMS_P2;Temp;Humidity;BMP_temperature;BMP_pressure;BME280_temperature;BME280_humidity;BME280_pressure;Samples;Min_cycle;Max_cycle;Signal;HPM_P1;HPM_P2
2021/03/02 00:01:11;;;;;;;14.90;4.72;;;9.90;99.90;;;;;;5093396;28;20384;-82
2021/03/02 00:03:38;;;;;;;11.68;5.10;;;9.90;99.90;;;;;;5094707;28;20047;-82
2021/03/02 00:06:06;;;;;;;13.25;5.78;;;9.90;99.90;;;;;;5093518;28;20032;-82
2021/03/02 00:08:33;;;;;;;12.13;6.38;;;9.90;99.90;;;;;;5093423;28;20032;-82
2021/03/02 00:11:00;;;;;;;13.98;5.28;;;9.90;99.90;;;;;;5094386;28;20031;-81
2021/03/02 00:13:27;;;;;;;9.05;4.60;;;9.90;99.90;;;;;;5094689;28;20057;-82
2021/03/02 00:15:53;;;;;;;14.20;5.53;;;9.90;99.90;;;;;;5093258;28;20020;-82
2021/03/02 00:18:20;;;;;;;12.05;5.22;;;10.00;99.90;;;;;;5094264;28;20044;-82
2021/03/02 00:20:48;;;;;;;14.25;5.57;;;10.00;99.90;;;;;;5094311;28;20035;-82
2021/03/02 00:23:26;;;;;;;11.85;5.25;;;10.00;99.90;;;;;;5093099;28;20391;-81
2021/03/02 00:25:55;;;;;;;13.10;5.80;;;10.00;99.90;;;;;;5094165;28;20396;-82
2021/03/02 00:28:22;;;;;;;15.82;5.22;;;10.00;99.90;;;;;;5076338;28;20028;-81
2021/03/02 00:30:49;;;;;;;13.77;5.15;;;10.10;99.90;;;;;;5094180;28;20032;-82
2021/03/02 00:33:17;;;;;;;19.17;6.63;;;10.10;99.90;;;;;;5076054;28;20048;-82
2021/03/02 00:35:43;;;;;;;10.75;5.32;;;10.10;99.90;;;;;;5092849;28;20029;-82
2021/03/02 00:38:09;;;;;;;12.52;5.47;;;10.20;99.90;;;;;;5092674;28;20040;-81
2021/03/02 00:40:35;;;;;;;20.70;6.03;;;10.20;99.90;;;;;;5092741;28;20376;-81
2021/03/02 00:43:01;;;;;;;12.00;5.22;;;10.20;99.90;;;;;;5092590;28;20028;-81
2021/03/02 00:45:27;;;;;;;18.40;5.63;;;10.30;99.90;;;;;;5092686;28;20031;-82
2021/03/02 00:47:53;;;;;;;15.88;5.32;;;10.30;99.90;;;;;;5092728;28;20021;-82
2021/03/02 00:50:22;;;;;;;14.77;5.38;;;10.30;99.90;;;;;;5093675;28;20028;-81
2021/03/02 00:52:48;;;;;;;15.40;5.28;;;10.20;99.90;;;;;;5092534;28;20047;-81
2021/03/02 00:55:14;;;;;;;12.60;4.85;;;10.20;99.90;;;;;;5093821;28;20490;-82
2021/03/02 00:57:40;;;;;;;13.20;6.35;;;10.20;99.90;;;;;;5093814;28;20044;-79
2021/03/02 01:00:10;;;;;;;11.52;5.18;;;10.10;99.90;;;;;;5092206;28;20068;-79
2021/03/02 01:02:37;;;;;;;16.17;6.03;;;10.00;99.90;;;;;;5092134;28;20119;-79
2021/03/02 01:05:08;;;;;;;14.75;5.43;;;9.90;99.90;;;;;;5092097;28;20032;-80
2021/03/02 01:07:35;;;;;;;16.35;4.97;;;9.70;99.90;;;;;;5092065;28;20028;-78
2021/03/02 01:10:07;;;;;;;12.68;5.95;;;9.60;99.90;;;;;;5092091;28;20028;-80
2021/03/02 01:12:35;;;;;;;13.05;5.63;;;9.50;99.90;;;;;;5075694;28;20047;-79
2021/03/02 01:15:04;;;;;;;15.50;6.63;;;9.40;99.90;;;;;;5091927;28;20545;-78
2021/03/02 01:17:30;;;;;;;11.55;5.53;;;9.40;99.90;;;;;;5093072;28;20472;-79
2021/03/02 01:19:56;;;;;;;14.13;6.30;;;9.30;99.90;;;;;;5093159;28;20035;-79
2021/03/02 01:22:22;;;;;;;12.00;6.57;;;9.30;99.90;;;;;;5092625;28;20085;-78
2021/03/02 01:24:48;;;;;;;15.43;6.90;;;9.30;99.90;;;;;;5092964;28;20373;-79
2021/03/02 01:27:14;;;;;;;17.42;6.20;;;9.20;99.90;;;;;;5092998;28;20028;-78
2021/03/02 01:29:40;;;;;;;16.02;6.78;;;9.20;99.90;;;;;;5093182;28;20024;-79
2021/03/02 01:32:07;;;;;;;16.38;6.15;;;9.20;99.90;;;;;;5092886;28;20027;-80
2021/03/02 01:34:33;;;;;;;21.08;7.18;;;9.20;99.90;;;;;;5091778;28;20024;-79
2021/03/02 01:37:01;;;;;;;15.75;6.95;;;9.20;99.90;;;;;;5092812;28;20032;-79
2021/03/02 01:39:27;;;;;;;13.73;6.40;;;9.20;99.90;;;;;;5092781;28;20077;-79
2021/03/02 01:41:55;;;;;;;13.98;6.72;;;9.20;99.90;;;;;;5092874;28;20388;-79
2021/03/02 01:44:21;;;;;;;16.15;6.93;;;9.20;99.90;;;;;;5091595;28;20411;-81
2021/03/02 01:46:50;;;;;;;16.40;6.80;;;9.20;99.90;;;;;;5092875;28;20032;-81
2021/03/02 01:49:19;;;;;;;17.40;7.25;;;9.10;99.90;;;;;;5091782;28;20339;-81
2021/03/02 01:51:46;;;;;;;15.70;7.15;;;9.10;99.90;;;;;;5092714;28;20067;-81
2021/03/02 01:54:14;;;;;;;17.73;6.90;;;9.10;99.90;;;;;;5092685;28;20115;-81
2021/03/02 01:56:40;;;;;;;15.30;7.57;;;9.10;99.90;;;;;;5092467;28;20089;-81
2021/03/02 01:59:06;;;;;;;19.38;6.60;;;9.10;99.90;;;;;;5092648;28;20043;-81
2021/03/02 02:01:33;;;;;;;16.35;7.18;;;9.00;99.90;;;;;;5091466;28;20024;-81
2021/03/02 02:04:20;;;;;;;18.70;8.05;;;9.00;99.90;;;;;;5092544;28;20498;-80
2021/03/02 02:06:54;;;;;;;14.27;7.60;;;9.00;99.90;;;;;;5092439;28;20027;-80
2021/03/02 02:09:51;;;;;;;16.35;6.97;;;9.00;99.90;;;;;;5092537;28;20036;-81
2021/03/02 02:12:26;;;;;;;15.02;7.57;;;8.90;99.90;;;;;;5092744;28;20031;-79
2021/03/02 02:15:03;;;;;;;15.77;6.55;;;9.00;99.90;;;;;;5091185;28;20040;-79
2021/03/02 02:17:50;;;;;;;13.15;6.65;;;8.90;99.90;;;;;;5091307;28;20040;-79
2021/03/02 02:20:35;;;;;;;15.98;7.72;;;8.90;99.90;;;;;;5092370;28;20111;-79
2021/03/02 02:23:34;;;;;;;20.05;7.53;;;9.00;99.90;;;;;;5092488;28;20060;-78
2021/03/02 02:26:18;;;;;;;12.63;6.85;;;9.00;99.90;;;;;;5092227;28;20483;-79
2021/03/02 02:28:47;;;;;;;15.35;8.23;;;9.00;99.90;;;;;;5092362;28;20020;-79
2021/03/02 02:31:13;;;;;;;14.57;6.30;;;9.00;99.90;;;;;;5092198;28;20496;-79
2021/03/02 02:33:43;;;;;;;15.00;6.25;;;9.10;99.90;;;;;;5092652;28;20032;-79
2021/03/02 02:36:12;;;;;;;17.20;6.82;;;9.20;99.90;;;;;;5095256;28;20385;-80
2021/03/02 02:38:42;;;;;;;12.60;5.85;;;9.20;99.90;;;;;;5096361;28;20130;-79
2021/03/02 02:41:09;;;;;;;13.38;6.20;;;9.20;99.90;;;;;;5095113;28;20055;-79
2021/03/02 02:43:37;;;;;;;14.23;5.57;;;9.20;99.90;;;;;;5095034;28;20039;-79
2021/03/02 02:46:03;;;;;;;11.80;6.10;;;9.20;99.90;;;;;;5096109;28;20028;-79
2021/03/02 02:48:31;;;;;;;11.60;5.60;;;9.20;99.90;;;;;;5096145;28;20035;-79
2021/03/02 02:50:57;;;;;;;23.10;7.85;;;9.10;99.90;;;;;;5096085;28;20116;-79
2021/03/02 02:53:23;;;;;;;15.52;6.93;;;9.10;99.90;;;;;;5096001;28;20032;-79
2021/03/02 02:55:57;;;;;;;12.38;6.05;;;9.10;99.90;;;;;;5096102;28;20377;-79
2021/03/02 02:58:30;;;;;;;15.05;6.63;;;9.10;99.90;;;;;;5095661;28;20048;-78
2021/03/02 03:01:02;;;;;;;11.57;5.55;;;9.10;99.90;;;;;;5095771;28;20480;-79
2021/03/02 03:03:31;;;;;;;9.75;5.60;;;9.20;99.90;;;;;;5095770;28;20039;-79
2021/03/02 03:06:01;;;;;;;16.75;6.90;;;9.20;99.90;;;;;;5095733;28;20024;-79
2021/03/02 03:08:33;;;;;;;13.90;6.15;;;9.20;99.90;;;;;;5095758;28;20024;-79
2021/03/02 03:11:02;;;;;;;16.55;6.82;;;9.20;99.90;;;;;;5095659;28;20073;-79
2021/03/02 03:13:42;;;;;;;14.95;6.95;;;9.20;99.90;;;;;;5095692;28;20020;-80
2021/03/02 03:16:10;;;;;;;16.05;6.22;;;9.20;99.90;;;;;;5095521;28;20020;-81
2021/03/02 03:18:45;;;;;;;22.45;6.97;;;9.20;99.90;;;;;;5095417;28;20388;-81
2021/03/02 03:21:12;;;;;;;15.70;6.55;;;9.20;99.90;;;;;;5095427;28;20032;-82
2021/03/02 03:23:40;;;;;;;20.00;6.65;;;9.20;99.90;;;;;;5094203;28;20392;-81
2021/03/02 03:26:06;;;;;;;16.38;6.85;;;9.20;99.90;;;;;;5095703;28;20028;-81
2021/03/02 03:28:32;;;;;;;10.10;5.85;;;9.20;99.90;;;;;;5095804;28;20534;-79
2021/03/02 03:31:00;;;;;;;13.88;6.75;;;9.20;99.90;;;;;;5095247;28;20024;-79
2021/03/02 03:33:28;;;;;;;11.88;6.50;;;9.30;99.90;;;;;;5095277;28;20020;-81
2021/03/02 03:35:55;;;;;;;12.00;6.57;;;9.30;99.90;;;;;;5095292;28;20128;-79
2021/03/02 03:38:21;;;;;;;15.52;5.90;;;9.40;99.90;;;;;;5095003;28;20024;-81
2021/03/02 03:40:47;;;;;;;13.30;6.40;;;9.40;99.90;;;;;;5095253;28;20043;-81
2021/03/02 03:43:13;;;;;;;14.85;6.03;;;9.40;99.90;;;;;;5095042;28;20024;-82
2021/03/02 03:45:39;;;;;;;9.35;5.88;;;9.50;99.90;;;;;;5094668;28;20028;-81
2021/03/02 03:48:05;;;;;;;15.63;6.50;;;9.50;99.90;;;;;;5094883;28;20026;-82
2021/03/02 03:50:31;;;;;;;15.55;4.97;;;9.50;99.90;;;;;;5094986;28;20051;-81
2021/03/02 03:53:01;;;;;;;16.40;6.25;;;9.50;99.90;;;;;;5093709;28;20437;-81
2021/03/02 03:55:38;;;;;;;12.20;5.40;;;9.50;99.90;;;;;;5093588;28;20499;-81
2021/03/02 03:58:05;;;;;;;10.77;5.22;;;9.50;99.90;;;;;;5094539;28;20052;-82
2021/03/02 04:00:31;;;;;;;14.05;7.00;;;9.60;99.90;;;;;;5076735;28;20028;-81
2021/03/02 04:02:58;;;;;;;11.02;5.10;;;9.60;99.90;;;;;;5093593;28;20039;-81
2021/03/02 04:05:24;;;;;;;11.15;6.10;;;9.60;99.90;;;;;;5094535;28;20381;-82
2021/03/02 04:07:52;;;;;;;11.05;5.60;;;9.60;99.90;;;;;;5093496;28;20036;-82
2021/03/02 04:10:18;;;;;;;12.52;5.70;;;9.60;99.90;;;;;;5093636;28;20065;-82
2021/03/02 04:12:46;;;;;;;14.82;5.97;;;9.50;99.90;;;;;;5094649;28;20074;-81
2021/03/02 04:15:14;;;;;;;15.45;7.03;;;9.50;99.90;;;;;;5094712;28;20024;-81
2021/03/02 04:17:49;;;;;;;11.07;5.13;;;9.50;99.90;;;;;;5094306;28;20400;-81
2021/03/02 04:20:15;;;;;;;8.95;4.93;;;9.50;99.90;;;;;;5094308;28;20024;-82
2021/03/02 04:22:40;;;;;;;11.68;5.63;;;9.40;99.90;;;;;;5094391;28;20031;-81
2021/03/02 04:25:07;;;;;;;10.63;5.38;;;9.40;99.90;;;;;;5094277;28;20028;-82
2021/03/02 04:27:33;;;;;;;9.65;5.30;;;9.40;99.90;;;;;;5093011;28;20028;-82
2021/03/02 04:29:59;;;;;;;9.23;5.55;;;9.40;99.90;;;;;;5094473;28;20089;-81
2021/03/02 04:32:25;;;;;;;14.77;5.60;;;9.40;99.90;;;;;;5094206;28;20024;-81
2021/03/02 04:34:51;;;;;;;9.95;5.45;;;9.30;99.90;;;;;;5092808;28;20031;-82
2021/03/02 04:37:17;;;;;;;15.57;5.80;;;9.30;99.90;;;;;;5093963;28;20472;-81
2021/03/02 04:39:43;;;;;;;11.45;5.78;;;9.30;99.90;;;;;;5092754;28;20085;-82
2021/03/02 04:42:10;;;;;;;12.90;5.78;;;9.30;99.90;;;;;;5094277;28;20023;-79
2021/03/02 04:44:36;;;;;;;10.40;5.40;;;9.30;99.90;;;;;;5094248;28;20020;-79
2021/03/02 04:47:01;;;;;;;14.15;6.60;;;9.30;99.90;;;;;;5093681;28;20024;-79
2021/03/02 04:49:27;;;;;;;11.25;5.80;;;9.30;99.90;;;;;;5092542;28;20085;-79
2021/03/02 04:51:53;;;;;;;13.15;5.55;;;9.20;99.90;;;;;;5075553;28;20023;-79
2021/03/02 04:54:19;;;;;;;11.98;5.20;;;9.30;99.90;;;;;;5092462;28;20111;-79
2021/03/02 04:56:45;;;;;;;10.30;4.90;;;9.30;99.90;;;;;;5093389;28;20052;-79
2021/03/02 04:59:11;;;;;;;9.15;4.53;;;9.30;99.90;;;;;;5091586;28;20256;-79
2021/03/02 05:01:37;;;;;;;12.88;6.40;;;9.30;99.90;;;;;;5092305;28;20378;-79
2021/03/02 05:04:03;;;;;;;13.07;4.55;;;9.30;99.90;;;;;;5093333;28;20031;-79
2021/03/02 05:06:29;;;;;;;10.07;4.43;;;9.30;99.90;;;;;;5093453;28;20024;-79
2021/03/02 05:08:55;;;;;;;11.00;4.38;;;9.30;99.90;;;;;;5093398;28;20024;-79
2021/03/02 05:11:21;;;;;;;9.27;5.35;;;9.20;99.90;;;;;;5092104;28;20376;-79
2021/03/02 05:13:47;;;;;;;8.48;3.72;;;9.20;99.90;;;;;;5093462;28;20081;-79
2021/03/02 05:16:13;;;;;;;8.73;4.78;;;9.10;99.90;;;;;;5093206;28;20020;-79
2021/03/02 05:18:41;;;;;;;11.75;4.47;;;9.20;99.90;;;;;;5093124;28;20036;-79
2021/03/02 05:21:07;;;;;;;9.73;3.45;;;9.30;99.90;;;;;;5093140;28;20385;-79
2021/03/02 05:23:33;;;;;;;12.00;4.50;;;9.30;99.90;;;;;;5091814;28;20115;-79
2021/03/02 05:25:59;;;;;;;9.20;3.65;;;9.30;99.90;;;;;;5093080;28;20074;-79
2021/03/02 05:28:25;;;;;;;12.75;4.60;;;9.20;99.90;;;;;;5092103;28;20031;-79
2021/03/02 05:30:52;;;;;;;10.00;3.63;;;9.30;99.90;;;;;;5093151;28;20019;-81
2021/03/02 05:33:18;;;;;;;9.88;4.53;;;9.30;99.90;;;;;;5092239;28;20035;-82
2021/03/02 05:35:44;;;;;;;7.30;4.18;;;9.20;99.90;;;;;;5093563;28;20069;-82
2021/03/02 05:38:10;;;;;;;11.30;4.35;;;9.20;99.90;;;;;;5091696;28;20040;-82
2021/03/02 05:40:38;;;;;;;7.70;4.20;;;9.10;99.90;;;;;;5108666;28;20473;-80
2021/03/02 05:43:05;;;;;;;9.65;4.38;;;9.10;99.90;;;;;;5092832;28;20028;-80
2021/03/02 05:45:31;;;;;;;6.88;3.85;;;9.10;99.90;;;;;;5093106;28;20024;-80
2021/03/02 05:47:59;;;;;;;5.65;3.33;;;9.10;99.90;;;;;;5092902;28;20020;-81
2021/03/02 05:50:28;;;;;;;7.45;3.80;;;9.20;99.90;;;;;;5091624;28;20031;-81
2021/03/02 05:52:59;;;;;;;4.88;3.25;;;9.30;99.90;;;;;;5091486;28;20032;-81
2021/03/02 05:55:25;;;;;;;6.80;3.22;;;9.30;99.90;;;;;;5092722;28;20028;-80
2021/03/02 05:57:52;;;;;;;7.18;3.38;;;9.40;99.90;;;;;;5092879;28;20059;-79
2021/03/02 06:00:18;;;;;;;7.82;3.60;;;9.40;99.90;;;;;;5091486;28;20060;-79
2021/03/02 06:02:44;;;;;;;10.00;3.70;;;9.40;99.90;;;;;;5092558;28;20031;-79
2021/03/02 06:05:10;;;;;;;5.57;3.10;;;9.40;99.90;;;;;;5091458;28;20032;-78
2021/03/02 06:07:36;;;;;;;6.25;3.08;;;9.50;99.90;;;;;;5092536;28;20082;-79
2021/03/02 06:10:03;;;;;;;6.47;2.85;;;9.50;99.90;;;;;;5090975;28;20038;-79
2021/03/02 06:12:29;;;;;;;6.28;2.67;;;9.60;99.90;;;;;;5092555;28;20020;-79
2021/03/02 06:15:05;;;;;;;10.02;3.58;;;9.60;99.90;;;;;;5092427;28;20384;-79
2021/03/02 06:17:31;;;;;;;7.18;3.22;;;9.70;99.90;;;;;;5092465;28;20036;-79
2021/03/02 06:19:57;;;;;;;8.27;3.67;;;9.70;99.90;;;;;;5091137;28;20038;-78
2021/03/02 06:22:37;;;;;;;9.48;4.90;;;9.80;99.90;;;;;;5091181;28;20024;-79
2021/03/02 06:25:06;;;;;;;11.25;3.58;;;9.90;99.90;;;;;;5091090;28;20381;-81
2021/03/02 06:27:32;;;;;;;6.03;3.00;;;9.90;99.90;;;;;;5092387;28;20129;-79
2021/03/02 06:30:15;;;;;;;7.60;3.42;;;10.00;99.90;;;;;;5091237;28;20036;-79
2021/03/02 06:32:45;;;;;;;6.18;3.75;;;10.00;99.90;;;;;;5092387;28;20024;-78
2021/03/02 06:35:12;;;;;;;5.93;3.30;;;10.10;99.90;;;;;;5092260;28;20107;-78
2021/03/02 06:37:47;;;;;;;10.27;3.58;;;10.20;99.90;;;;;;5092204;28;20043;-78
2021/03/02 06:40:14;;;;;;;6.07;2.92;;;10.20;99.90;;;;;;5092151;28;20468;-79
2021/03/02 06:42:45;;;;;;;8.15;3.30;;;10.10;99.90;;;;;;5092204;28;20036;-79
2021/03/02 06:45:16;;;;;;;4.85;3.08;;;10.10;99.90;;;;;;5090997;28;20028;-79
2021/03/02 06:47:43;;;;;;;9.77;4.38;;;10.20;99.90;;;;;;5092196;28;20149;-80
2021/03/02 06:50:12;;;;;;;5.65;3.58;;;10.20;99.90;;;;;;5092173;28;20023;-81
2021/03/02 06:52:40;;;;;;;7.22;3.67;;;10.30;99.90;;;;;;5092199;28;20027;-81
2021/03/02 06:55:27;;;;;;;8.20;4.68;;;10.30;99.90;;;;;;5090929;28;20541;-79
2021/03/02 06:58:22;;;;;;;11.65;5.15;;;10.30;99.90;;;;;;5091988;28;20103;-80
2021/03/02 07:00:53;;;;;;;11.20;5.47;;;10.40;99.90;;;;;;5092208;28;20028;-81
2021/03/02 07:03:33;;;;;;;11.82;5.05;;;10.40;99.90;;;;;;5090946;28;20484;-81
2021/03/02 07:06:04;;;;;;;11.50;5.55;;;10.50;99.90;;;;;;5090689;28;20579;-81
2021/03/02 07:08:31;;;;;;;8.23;4.38;;;10.50;99.90;;;;;;5092204;28;20028;-82
2021/03/02 07:10:59;;;;;;;7.80;4.07;;;10.60;99.90;;;;;;5092049;28;20039;-81
2021/03/02 07:13:32;;;;;;;10.68;4.75;;;10.60;99.90;;;;;;5093924;28;20042;-81
2021/03/02 07:15:59;;;;;;;9.88;3.90;;;10.70;99.90;;;;;;5096422;28;20047;-79
2021/03/02 07:18:28;;;;;;;8.93;4.28;;;10.80;99.90;;;;;;5090694;28;20429;-81
2021/03/02 07:21:01;;;;;;;10.85;4.15;;;10.80;99.90;;;;;;5092445;28;20358;-81
2021/03/02 07:23:30;;;;;;;10.70;3.92;;;10.90;99.90;;;;;;5095577;28;20032;-81
2021/03/02 07:25:57;;;;;;;15.43;4.70;;;10.90;99.90;;;;;;5094358;28;20020;-81
2021/03/02 07:28:26;;;;;;;6.75;3.75;;;10.90;99.90;;;;;;5095539;28;20107;-82
2021/03/02 07:30:54;;;;;;;14.93;5.00;;;11.00;99.90;;;;;;5095546;28;20035;-81
2021/03/02 07:33:20;;;;;;;8.40;3.45;;;11.10;99.90;;;;;;5094055;28;20101;-80
2021/03/02 07:35:47;;;;;;;10.20;4.15;;;11.10;99.90;;;;;;5094071;28;20020;-81
2021/03/02 07:38:22;;;;;;;8.00;4.38;;;11.30;99.90;;;;;;5095143;28;20082;-81
2021/03/02 07:40:57;;;;;;;8.68;4.05;;;11.30;99.90;;;;;;5095221;28;20016;-81
2021/03/02 07:43:30;;;;;;;5.18;3.15;;;11.50;99.90;;;;;;5093926;28;20111;-81
2021/03/02 07:45:57;;;;;;;5.45;2.70;;;11.60;99.90;;;;;;5095208;28;20494;-81
2021/03/02 07:48:31;;;;;;;5.68;3.13;;;11.60;99.90;;;;;;5093726;28;20032;-81
2021/03/02 07:51:17;;;;;;;8.52;3.13;;;11.80;99.90;;;;;;5093811;28;20043;-80
2021/03/02 07:53:45;;;;;;;9.70;3.60;;;11.90;99.90;;;;;;5094961;28;20082;-82
2021/03/02 07:56:20;;;;;;;6.45;3.03;;;12.00;99.90;;;;;;5093414;28;20118;-81
2021/03/02 07:59:04;;;;;;;10.85;3.55;;;12.00;99.90;;;;;;5093556;28;20036;-80
2021/03/02 08:01:31;;;;;;;5.95;2.95;;;12.10;99.90;;;;;;5094682;28;20031;-79
2021/03/02 08:04:16;;;;;;;7.13;3.17;;;12.10;99.90;;;;;;5094681;28;20048;-81
2021/03/02 08:06:49;;;;;;;4.45;3.03;;;12.20;99.90;;;;;;5094845;28;20028;-81
2021/03/02 08:09:21;;;;;;;6.00;3.35;;;12.30;99.90;;;;;;5094572;28;20047;-80
2021/03/02 08:11:48;;;;;;;9.27;3.85;;;12.40;99.90;;;;;;5094656;28;20077;-80
2021/03/02 08:14:17;;;;;;;7.50;3.10;;;12.40;99.90;;;;;;5094552;28;20024;-81
2021/03/02 08:17:05;;;;;;;5.85;3.30;;;12.40;99.90;;;;;;5094539;28;20031;-81
2021/03/02 08:19:38;;;;;;;3.85;2.33;;;12.50;99.90;;;;;;5093149;28;20089;-80
2021/03/02 08:22:19;;;;;;;9.67;3.67;;;12.60;99.90;;;;;;5093118;28;20095;-81
2021/03/02 08:24:58;;;;;;;8.73;2.97;;;12.70;99.90;;;;;;5076187;28;20274;-80
2021/03/02 08:27:59;;;;;;;6.82;3.03;;;12.80;99.90;;;;;;5094251;28;20534;-81
2021/03/02 08:30:34;;;;;;;7.53;3.63;;;12.90;99.90;;;;;;5067471;28;20396;-80
2021/03/02 08:33:08;;;;;;;5.55;2.80;;;13.00;99.90;;;;;;5094013;28;20039;-81
2021/03/02 08:35:39;;;;;;;5.93;3.13;;;13.10;99.90;;;;;;5092859;28;20465;-80
2021/03/02 08:38:07;;;;;;;11.25;3.25;;;13.10;99.90;;;;;;5094128;28;20051;-80
2021/03/02 08:40:33;;;;;;;4.63;3.13;;;13.10;99.90;;;;;;5095480;28;20387;-82
2021/03/02 08:43:07;;;;;;;6.00;3.27;;;13.20;99.90;;;;;;5098147;28;20035;-80
2021/03/02 08:45:54;;;;;;;5.78;2.58;;;13.20;99.90;;;;;;5096519;28;20399;-82
2021/03/02 08:48:26;;;;;;;3.30;2.70;;;13.30;99.90;;;;;;5095185;28;20383;-80
2021/03/02 08:51:18;;;;;;;6.35;3.38;;;13.30;99.60;;;;;;5096803;28;20031;-81
2021/03/02 08:53:49;;;;;;;4.18;2.80;;;13.30;98.70;;;;;;5097516;28;20043;-82
2021/03/02 08:56:15;;;;;;;5.88;2.92;;;13.30;99.80;;;;;;5097255;28;20032;-82
2021/03/02 08:58:43;;;;;;;6.07;3.50;;;13.30;99.30;;;;;;5094111;28;20050;-82
2021/03/02 09:01:11;;;;;;;4.95;3.25;;;13.40;99.90;;;;;;5093552;28;20082;-81
2021/03/02 09:03:39;;;;;;;7.68;2.90;;;13.60;99.40;;;;;;5095116;28;20103;-82
2021/03/02 09:06:18;;;;;;;3.50;2.78;;;13.70;98.60;;;;;;5096532;28;20024;-79
2021/03/02 09:09:05;;;;;;;6.57;2.92;;;13.70;99.10;;;;;;5096019;28;20028;-82
2021/03/02 09:11:41;;;;;;;4.55;2.35;;;13.80;98.40;;;;;;5097104;28;20031;-81
2021/03/02 09:14:18;;;;;;;5.38;2.80;;;13.80;98.40;;;;;;5097236;28;20016;-82
2021/03/02 09:16:49;;;;;;;5.95;3.00;;;13.90;97.90;;;;;;5095896;28;20059;-80
2021/03/02 09:19:22;;;;;;;4.72;2.70;;;13.90;98.00;;;;;;5096738;28;20047;-81
2021/03/02 09:22:09;;;;;;;4.47;2.80;;;13.90;97.70;;;;;;5096145;28;20447;-82
2021/03/02 09:24:38;;;;;;;6.60;2.50;;;13.90;97.30;;;;;;5096850;28;20032;-82
2021/03/02 09:27:14;;;;;;;5.28;2.78;;;13.90;96.50;;;;;;5095740;28;20046;-81
2021/03/02 09:29:46;;;;;;;9.13;2.75;;;13.90;95.60;;;;;;5095404;28;20071;-79
2021/03/02 09:32:28;;;;;;;6.35;2.42;;;13.90;97.20;;;;;;5095116;28;20028;-83
2021/03/02 09:34:56;;;;;;;10.23;3.67;;;14.00;95.80;;;;;;5097336;28;20024;-80
2021/03/02 09:37:23;;;;;;;4.80;2.85;;;14.20;95.00;;;;;;5096868;28;20467;-81
2021/03/02 09:40:07;;;;;;;5.25;3.30;;;14.30;95.60;;;;;;5095582;28;20128;-80
2021/03/02 09:42:36;;;;;;;5.00;2.95;;;14.50;95.70;;;;;;5078561;28;20028;-81
2021/03/02 09:45:04;;;;;;;5.18;3.05;;;14.50;93.20;;;;;;5098717;28;20054;-81
2021/03/02 09:47:33;;;;;;;5.03;3.33;;;14.60;94.20;;;;;;5097257;28;20383;-81
2021/03/02 09:50:18;;;;;;;6.53;2.70;;;14.80;93.60;;;;;;5095842;28;20023;-79
2021/03/02 09:52:52;;;;;;;5.72;2.65;;;14.80;93.10;;;;;;5096135;28;20051;-80
2021/03/02 09:55:18;;;;;;;4.72;2.30;;;14.90;93.90;;;;;;5095496;28;20024;-80
2021/03/02 09:58:12;;;;;;;4.25;2.38;;;15.20;93.70;;;;;;5094899;28;20471;-80
2021/03/02 10:00:49;;;;;;;5.15;2.75;;;15.50;93.70;;;;;;5077082;28;20038;-80
2021/03/02 10:03:24;;;;;;;4.68;2.58;;;15.60;93.40;;;;;;5093190;28;20024;-79
2021/03/02 10:05:54;;;;;;;5.63;3.22;;;15.70;93.00;;;;;;5093410;28;20498;-79
2021/03/02 10:08:35;;;;;;;6.57;3.30;;;15.80;93.00;;;;;;5094380;28;20035;-78
2021/03/02 10:11:04;;;;;;;3.50;2.40;;;15.80;93.30;;;;;;5095739;28;20098;-80
2021/03/02 10:13:39;;;;;;;4.70;2.58;;;15.70;92.80;;;;;;5096351;28;20109;-80
2021/03/02 10:16:29;;;;;;;3.80;2.65;;;15.70;93.00;;;;;;5096836;28;20024;-79
2021/03/02 10:19:03;;;;;;;5.03;2.70;;;15.80;92.50;;;;;;5095692;28;20031;-81
2021/03/02 10:21:52;;;;;;;5.80;3.45;;;15.80;92.40;;;;;;5095164;28;20057;-80
2021/03/02 10:24:23;;;;;;;6.85;3.65;;;15.80;93.60;;;;;;5096283;28;20092;-80
2021/03/02 10:26:50;;;;;;;6.93;3.05;;;16.00;92.60;;;;;;5096088;28;20067;-81
2021/03/02 10:29:16;;;;;;;8.60;3.53;;;16.00;91.90;;;;;;5095788;28;20440;-80
2021/03/02 10:31:42;;;;;;;8.63;4.15;;;16.20;92.00;;;;;;5096485;28;20028;-81
2021/03/02 10:34:11;;;;;;;9.80;4.05;;;16.40;91.90;;;;;;5096038;28;20384;-80
2021/03/02 10:36:40;;;;;;;6.25;3.67;;;16.60;91.50;;;;;;5095888;28;20126;-80
2021/03/02 10:39:11;;;;;;;6.57;3.45;;;16.50;90.50;;;;;;5095628;28;20070;-81
2021/03/02 10:41:38;;;;;;;7.70;3.53;;;16.50;90.50;;;;;;5094407;28;20468;-80
2021/03/02 10:44:05;;;;;;;5.78;2.45;;;16.60;90.20;;;;;;5096307;28;20066;-83
2021/03/02 10:46:31;;;;;;;8.10;3.58;;;16.70;89.50;;;;;;5096686;28;20028;-82
2021/03/02 10:48:58;;;;;;;3.63;2.67;;;16.60;90.30;;;;;;5095662;28;20024;-82
2021/03/02 10:51:25;;;;;;;5.10;3.33;;;16.70;88.10;;;;;;5096032;28;20481;-82
2021/03/02 10:53:52;;;;;;;3.55;2.45;;;16.90;89.80;;;;;;5094651;28;20028;-82
2021/03/02 10:56:19;;;;;;;7.32;2.40;;;16.80;86.20;;;;;;5093412;28;20028;-82
2021/03/02 10:58:46;;;;;;;5.10;2.55;;;16.60;84.80;;;;;;5096629;28;20036;-80
2021/03/02 11:01:12;;;;;;;5.28;3.53;;;16.60;83.40;;;;;;5101849;28;20058;-81
2021/03/02 11:03:41;;;;;;;8.38;3.10;;;16.40;85.30;;;;;;5096028;28;20465;-82
2021/03/02 11:06:08;;;;;;;4.65;2.92;;;16.40;86.20;;;;;;5095881;28;20028;-78
2021/03/02 11:08:34;;;;;;;3.42;2.38;;;16.50;88.70;;;;;;5094675;28;20035;-78
2021/03/02 11:10:59;;;;;;;7.05;3.90;;;16.40;87.50;;;;;;5096039;28;20388;-79
2021/03/02 11:13:25;;;;;;;7.10;3.30;;;16.60;89.00;;;;;;5096027;28;20028;-78
2021/03/02 11:15:51;;;;;;;4.97;2.60;;;16.60;88.30;;;;;;5094445;28;20384;-79
2021/03/02 11:18:17;;;;;;;3.53;2.50;;;16.70;87.10;;;;;;5095753;28;20480;-78
2021/03/02 11:20:44;;;;;;;7.18;3.00;;;16.60;85.60;;;;;;5094430;28;20369;-79
2021/03/02 11:23:11;;;;;;;2.95;2.28;;;16.50;86.30;;;;;;5095431;28;20036;-79
2021/03/02 11:25:38;;;;;;;5.90;2.90;;;16.50;85.50;;;;;;5095579;28;20099;-78
2021/03/02 11:28:04;;;;;;;5.28;3.10;;;16.60;87.50;;;;;;5095403;28;20028;-78
2021/03/02 11:30:30;;;;;;;11.18;3.65;;;16.60;87.30;;;;;;5095464;28;20028;-78
2021/03/02 11:32:56;;;;;;;10.20;3.40;;;16.80;88.10;;;;;;5095318;28;20435;-79
2021/03/02 11:35:22;;;;;;;5.82;3.45;;;16.90;83.90;;;;;;5093976;28;20062;-79
2021/03/02 11:37:48;;;;;;;6.20;3.22;;;17.00;85.60;;;;;;5095149;28;20024;-80
2021/03/02 11:40:16;;;;;;;4.43;2.93;;;17.10;85.40;;;;;;5094042;28;20024;-80
2021/03/02 11:42:43;;;;;;;6.50;3.33;;;17.20;86.40;;;;;;5093987;28;20270;-80
2021/03/02 11:45:11;;;;;;;7.68;3.30;;;17.30;85.80;;;;;;5094067;28;20032;-79
2021/03/02 11:47:38;;;;;;;5.25;3.58;;;17.30;85.40;;;;;;5093871;28;20025;-80
2021/03/02 11:50:06;;;;;;;6.13;3.33;;;17.40;82.80;;;;;;5094994;28;20027;-79
2021/03/02 11:52:32;;;;;;;7.88;3.08;;;17.40;84.70;;;;;;5094935;28;20028;-80
2021/03/02 11:54:58;;;;;;;8.05;3.40;;;17.40;83.30;;;;;;5094891;28;20028;-80
2021/03/02 11:57:25;;;;;;;5.32;2.85;;;17.60;85.40;;;;;;5094856;28;20048;-79
2021/03/02 11:59:51;;;;;;;9.35;4.03;;;17.40;81.70;;;;;;5096083;28;20388;-79
2021/03/02 12:02:17;;;;;;;10.65;3.80;;;17.50;83.90;;;;;;5096190;28;20035;-79
2021/03/02 12:04:44;;;;;;;4.88;3.03;;;17.50;84.20;;;;;;5094951;28;20020;-80
2021/03/02 12:07:11;;;;;;;5.65;3.38;;;17.30;82.90;;;;;;5094213;28;20059;-81
2021/03/02 12:09:38;;;;;;;7.57;4.13;;;17.20;83.30;;;;;;5094741;28;20024;-80
2021/03/02 12:12:05;;;;;;;10.00;4.00;;;17.50;83.70;;;;;;5094549;28;20024;-79
2021/03/02 12:14:32;;;;;;;6.43;2.78;;;17.40;83.20;;;;;;5095195;28;20119;-80
2021/03/02 12:16:59;;;;;;;4.93;3.15;;;17.60;80.90;;;;;;5096043;28;20028;-81
2021/03/02 12:19:25;;;;;;;5.03;2.83;;;17.60;79.80;;;;;;5094388;28;20123;-81
2021/03/02 12:21:51;;;;;;;6.18;3.60;;;17.50;80.70;;;;;;5094347;28;20048;-81
2021/03/02 12:24:17;;;;;;;6.95;2.88;;;17.60;79.40;;;;;;5094248;28;20024;-81
2021/03/02 12:26:43;;;;;;;6.15;3.47;;;17.50;77.80;;;;;;5094366;28;20016;-81
2021/03/02 12:29:09;;;;;;;5.72;3.20;;;17.60;79.50;;;;;;5094328;28;20028;-80
2021/03/02 12:31:36;;;;;;;4.05;3.08;;;17.60;80.50;;;;;;5093101;28;20434;-81
2021/03/02 12:34:02;;;;;;;6.75;3.42;;;17.60;81.00;;;;;;5094079;28;20024;-81
2021/03/02 12:36:28;;;;;;;5.53;3.13;;;17.70;78.70;;;;;;5093982;28;20461;-80
2021/03/02 12:38:54;;;;;;;4.03;2.33;;;17.90;79.60;;;;;;5094001;28;20538;-81
2021/03/02 12:41:20;;;;;;;4.43;3.30;;;17.90;79.60;;;;;;5093975;28;20028;-80
2021/03/02 12:43:46;;;;;;;4.72;3.05;;;17.90;79.90;;;;;;5094067;28;20024;-81
2021/03/02 12:46:12;;;;;;;6.70;2.60;;;17.80;79.60;;;;;;5092643;28;20483;-80
2021/03/02 12:48:38;;;;;;;4.32;2.60;;;17.50;76.50;;;;;;5092601;28;20037;-80
2021/03/02 12:51:05;;;;;;;3.28;2.63;;;17.30;78.90;;;;;;5093816;28;20024;-81
2021/03/02 12:53:31;;;;;;;5.57;2.90;;;17.30;80.70;;;;;;5093846;28;20040;-81
2021/03/02 12:55:58;;;;;;;3.47;2.22;;;17.10;79.10;;;;;;5093386;28;20034;-80
2021/03/02 12:58:24;;;;;;;5.03;2.15;;;17.10;78.70;;;;;;5093595;28;20051;-81